createdAt,value
2023-03-27T00:01:12.952Z,7.27
2023-03-27T00:03:40.869Z,7.20
2023-03-27T00:06:12.454Z,7.21
2023-03-27T00:08:39.429Z,7.20
2023-03-27T00:11:08.032Z,7.21
2023-03-27T00:13:36.597Z,7.25
2023-03-27T00:16:16.424Z,7.28
2023-03-27T00:18:44.746Z,7.27
2023-03-27T00:21:11.531Z,7.31
2023-03-27T00:23:38.296Z,7.32
2023-03-27T00:26:05.509Z,7.26
2023-03-27T00:28:32.801Z,7.19
2023-03-27T00:31:00.140Z,7.20
2023-03-27T00:33:27.636Z,7.21
2023-03-27T00:35:54.896Z,7.25
2023-03-27T00:38:22.364Z,7.22
2023-03-27T00:40:51.068Z,7.19
2023-03-27T00:43:28.692Z,7.15
2023-03-27T00:46:42.414Z,7.13
2023-03-27T00:49:15.008Z,7.11
2023-03-27T00:51:49.750Z,7.08
2023-03-27T00:54:25.534Z,7.14
2023-03-27T00:57:01.949Z,7.10
2023-03-27T00:59:34.682Z,7.10
2023-03-27T01:02:03.801Z,7.07
2023-03-27T01:04:33.190Z,6.99
2023-03-27T01:07:00.840Z,6.97
2023-03-27T01:09:27.841Z,6.98
2023-03-27T01:12:11.129Z,6.94
2023-03-27T01:14:56.660Z,6.91
2023-03-27T01:18:17.890Z,6.82
2023-03-27T01:21:38.510Z,6.79
2023-03-27T01:24:38.632Z,6.80
2023-03-27T01:27:37.741Z,6.74
2023-03-27T01:30:33.736Z,6.70
2023-03-27T01:33:21.448Z,6.73
2023-03-27T01:36:08.160Z,6.71
2023-03-27T01:39:11.046Z,6.64
2023-03-27T01:42:00.609Z,6.61
2023-03-27T01:44:52.953Z,6.62
2023-03-27T01:47:40.933Z,6.69
2023-03-27T01:50:16.486Z,6.65
2023-03-27T01:52:52.551Z,6.58
2023-03-27T01:55:26.375Z,6.50
2023-03-27T01:58:05.150Z,6.53
2023-03-27T02:00:51.297Z,6.53
2023-03-27T02:03:36.874Z,6.49
2023-03-27T02:06:12.156Z,6.44
2023-03-27T02:09:12.300Z,6.42
2023-03-27T02:11:52.815Z,6.35
2023-03-27T02:14:28.555Z,6.31
2023-03-27T02:17:07.897Z,6.24
2023-03-27T02:19:42.878Z,6.18
2023-03-27T02:22:09.808Z,6.11
2023-03-27T02:24:38.678Z,6.10
2023-03-27T02:27:32.574Z,6.07
2023-03-27T02:30:26.971Z,5.99
2023-03-27T02:33:27.481Z,5.95
2023-03-27T02:36:13.082Z,5.99
2023-03-27T02:39:03.119Z,5.88
2023-03-27T02:41:34.750Z,5.88
2023-03-27T02:44:29.047Z,5.97
2023-03-27T02:47:11.923Z,5.97
2023-03-27T02:49:51.350Z,5.96
2023-03-27T02:52:33.074Z,5.94
2023-03-27T02:55:10.751Z,5.92
2023-03-27T02:57:39.149Z,5.86
2023-03-27T03:00:28.314Z,5.85
2023-03-27T03:03:13.635Z,5.88
2023-03-27T03:05:41.106Z,5.78
2023-03-27T03:08:10.224Z,5.79
2023-03-27T03:10:44.235Z,5.69
2023-03-27T03:13:11.447Z,5.78
2023-03-27T03:15:39.587Z,5.74
2023-03-27T03:18:07.669Z,5.69
2023-03-27T03:20:35.343Z,5.73
2023-03-27T03:23:02.480Z,5.71
2023-03-27T03:25:31.241Z,5.67
2023-03-27T03:28:01.492Z,5.66
2023-03-27T03:30:31.272Z,5.62
2023-03-27T03:32:58.622Z,5.54
2023-03-27T03:35:26.301Z,5.54
2023-03-27T03:37:53.128Z,5.54
2023-03-27T03:40:21.144Z,5.54
2023-03-27T03:42:50.885Z,5.41
2023-03-27T03:45:19.247Z,5.31
2023-03-27T03:47:46.924Z,5.30
2023-03-27T03:50:15.540Z,5.29
2023-03-27T03:52:43.254Z,5.27
2023-03-27T03:55:15.762Z,5.31
2023-03-27T03:57:47.228Z,5.29
2023-03-27T04:00:17.117Z,5.29
2023-03-27T04:02:45.202Z,5.25
2023-03-27T04:05:12.037Z,5.13
2023-03-27T04:07:40.519Z,5.10
2023-03-27T04:10:11.024Z,5.02
2023-03-27T04:12:37.824Z,5.01
2023-03-27T04:15:05.530Z,4.96
2023-03-27T04:17:33.249Z,4.91
2023-03-27T04:20:00.256Z,4.92
2023-03-27T04:22:27.064Z,4.89
2023-03-27T04:24:53.936Z,4.88
2023-03-27T04:27:23.425Z,4.88
2023-03-27T04:29:50.207Z,4.86
2023-03-27T04:32:19.232Z,4.79
2023-03-27T04:34:49.202Z,4.70
2023-03-27T04:37:16.646Z,4.66
2023-03-27T04:39:50.299Z,4.69
2023-03-27T04:42:17.045Z,4.74
2023-03-27T04:44:46.488Z,4.64
2023-03-27T04:47:13.420Z,4.63
2023-03-27T04:49:49.620Z,4.53
2023-03-27T04:52:19.733Z,4.50
2023-03-27T04:54:46.623Z,4.46
2023-03-27T04:57:15.622Z,4.53
2023-03-27T04:59:42.839Z,4.54
2023-03-27T05:02:10.904Z,4.47
2023-03-27T05:04:38.777Z,4.41
2023-03-27T05:07:05.741Z,4.40
2023-03-27T05:09:32.627Z,4.42
2023-03-27T05:11:59.567Z,4.38
2023-03-27T05:14:26.406Z,4.39
2023-03-27T05:16:53.205Z,4.38
2023-03-27T05:19:20.222Z,4.39
2023-03-27T05:21:47.982Z,4.40
2023-03-27T05:24:15.995Z,4.28
2023-03-27T05:26:43.248Z,4.30
2023-03-27T05:29:10.207Z,4.44
2023-03-27T05:31:37.408Z,4.52
2023-03-27T05:34:05.572Z,4.45
2023-03-27T05:36:32.746Z,4.37
2023-03-27T05:38:59.630Z,4.42
2023-03-27T05:41:26.447Z,4.37
2023-03-27T05:43:53.472Z,4.43
2023-03-27T05:46:21.572Z,4.37
2023-03-27T05:48:48.912Z,4.43
2023-03-27T05:51:17.469Z,4.48
2023-03-27T05:53:44.230Z,4.42
2023-03-27T05:56:11.123Z,4.36
2023-03-27T05:58:38.671Z,4.36
2023-03-27T06:01:05.905Z,4.34
2023-03-27T06:03:36.914Z,4.37
2023-03-27T06:06:12.291Z,4.38
2023-03-27T06:08:39.104Z,4.28
2023-03-27T06:11:11.693Z,4.32
2023-03-27T06:13:39.148Z,4.33
2023-03-27T06:16:07.295Z,4.35
2023-03-27T06:18:34.498Z,4.36
2023-03-27T06:21:01.676Z,4.33
2023-03-27T06:23:28.914Z,4.35
2023-03-27T06:25:55.944Z,4.33
2023-03-27T06:28:22.801Z,4.31
2023-03-27T06:30:50.325Z,4.42
2023-03-27T06:33:17.190Z,4.43
2023-03-27T06:35:53.199Z,4.42
2023-03-27T06:38:21.171Z,4.40
2023-03-27T06:40:48.144Z,4.51
2023-03-27T06:43:18.922Z,4.57
2023-03-27T06:45:51.545Z,4.58
2023-03-27T06:48:22.367Z,4.57
2023-03-27T06:50:52.682Z,4.67
2023-03-27T06:55:51.328Z,4.75
2023-03-27T06:58:19.303Z,4.84
2023-03-27T07:00:49.609Z,4.98
2023-03-27T07:03:19.901Z,5.07
2023-03-27T07:05:46.962Z,5.09
2023-03-27T07:10:56.288Z,5.16
2023-03-27T07:13:27.283Z,5.13
2023-03-27T07:15:54.855Z,5.17
2023-03-27T07:18:22.586Z,5.35
2023-03-27T07:20:50.393Z,5.44
2023-03-27T07:23:17.690Z,5.32
2023-03-27T07:25:44.459Z,5.20
2023-03-27T07:28:16.638Z,5.18
2023-03-27T07:30:43.961Z,5.19
2023-03-27T07:33:10.904Z,5.24
2023-03-27T07:35:46.756Z,5.30
2023-03-27T07:38:14.439Z,5.20
2023-03-27T07:40:45.821Z,5.19
2023-03-27T07:43:13.264Z,5.26
2023-03-27T07:45:41.214Z,5.29
2023-03-27T07:48:14.176Z,5.30
2023-03-27T07:50:40.890Z,5.33
2023-03-27T07:53:07.745Z,5.49
2023-03-27T07:55:37.570Z,5.66
2023-03-27T07:58:06.592Z,5.74
2023-03-27T08:00:38.828Z,5.72
2023-03-27T08:03:12.041Z,5.79
2023-03-27T08:05:38.973Z,5.97
2023-03-27T08:08:05.994Z,6.09
2023-03-27T08:10:32.974Z,6.25
2023-03-27T08:13:00.769Z,6.41
2023-03-27T08:15:27.627Z,6.64
2023-03-27T08:17:56.656Z,6.83
2023-03-27T08:20:24.247Z,6.94
2023-03-27T08:22:52.663Z,6.88
2023-03-27T08:25:22.206Z,7.06
2023-03-27T08:27:49.492Z,7.28
2023-03-27T08:30:17.518Z,7.30
2023-03-27T08:32:45.037Z,7.43
2023-03-27T08:35:13.413Z,7.53
2023-03-27T08:37:41.477Z,7.75
2023-03-27T08:40:23.497Z,7.92
2023-03-27T08:42:56.946Z,8.14
2023-03-27T08:45:41.009Z,8.47
2023-03-27T08:48:18.424Z,8.73
2023-03-27T08:51:16.278Z,8.92
2023-03-27T08:53:58.755Z,8.80
2023-03-27T08:56:27.540Z,9.14
2023-03-27T08:58:54.824Z,8.82
2023-03-27T09:01:46.253Z,8.53
2023-03-27T09:04:42.918Z,8.56
2023-03-27T09:07:37.168Z,8.25
2023-03-27T09:10:35.775Z,8.44
2023-03-27T09:13:17.894Z,8.59
2023-03-27T09:16:17.315Z,9.04
2023-03-27T09:19:15.393Z,8.60
2023-03-27T09:21:54.946Z,8.51
2023-03-27T09:24:40.539Z,8.97
2023-03-27T09:27:18.299Z,9.20
2023-03-27T09:30:04.941Z,9.51
2023-03-27T09:32:33.478Z,9.18
2023-03-27T09:35:01.174Z,8.69
2023-03-27T09:37:28.458Z,8.36
2023-03-27T09:39:58.745Z,8.71
2023-03-27T09:42:37.567Z,8.54
2023-03-27T09:45:10.848Z,8.44
2023-03-27T09:47:51.129Z,8.21
2023-03-27T09:50:35.855Z,8.65
2023-03-27T09:53:15.197Z,9.21
2023-03-27T09:55:58.330Z,9.96
2023-03-27T09:58:32.209Z,10.45
2023-03-27T10:01:31.328Z,10.72
2023-03-27T10:03:59.631Z,10.52
2023-03-27T10:06:38.570Z,9.75
2023-03-27T10:09:34.198Z,9.89
2023-03-27T10:12:07.426Z,10.34
2023-03-27T10:14:42.105Z,10.58
2023-03-27T10:17:24.444Z,10.52
2023-03-27T10:19:57.040Z,10.33
2023-03-27T10:22:33.755Z,9.83
2023-03-27T10:25:17.511Z,9.40
2023-03-27T10:27:44.343Z,9.76
2023-03-27T10:30:33.314Z,10.08
2023-03-27T10:33:00.306Z,10.51
2023-03-27T10:35:40.168Z,10.16
2023-03-27T10:38:15.329Z,10.15
2023-03-27T10:40:50.011Z,9.81
2023-03-27T10:43:42.585Z,10.16
2023-03-27T10:46:30.948Z,10.89
2023-03-27T10:49:28.747Z,10.60
2023-03-27T10:52:25.586Z,10.86
2023-03-27T10:55:15.385Z,10.29
2023-03-27T10:57:48.385Z,9.82
2023-03-27T11:00:39.248Z,10.12
2023-03-27T11:03:30.010Z,10.55
2023-03-27T11:06:01.384Z,10.09
2023-03-27T11:08:47.027Z,9.88
2023-03-27T11:11:29.502Z,9.78
2023-03-27T11:14:03.633Z,9.72
2023-03-27T11:16:41.288Z,10.18
2023-03-27T11:19:11.208Z,10.24
2023-03-27T11:21:50.879Z,11.13
2023-03-27T11:24:46.284Z,12.14
2023-03-27T11:27:30.829Z,12.46
2023-03-27T11:30:23.581Z,12.18
2023-03-27T11:33:43.409Z,11.78
2023-03-27T11:36:48.306Z,11.07
2023-03-27T11:39:23.964Z,10.34
2023-03-27T11:42:02.328Z,9.93
2023-03-27T11:44:30.404Z,9.76
2023-03-27T11:47:42.202Z,9.61
2023-03-27T11:50:36.828Z,9.34
2023-03-27T11:53:28.255Z,9.21
2023-03-27T11:56:13.043Z,8.95
2023-03-27T11:59:31.470Z,8.80
2023-03-27T12:03:09.577Z,8.74
2023-03-27T12:06:14.115Z,8.78
2023-03-27T12:09:05.306Z,9.29
2023-03-27T12:11:39.415Z,10.46
2023-03-27T12:14:41.020Z,12.27
2023-03-27T12:17:31.689Z,12.10
2023-03-27T12:20:51.980Z,11.33
2023-03-27T12:23:49.460Z,10.38
2023-03-27T12:26:39.525Z,10.35
2023-03-27T12:29:55.975Z,10.36
2023-03-27T12:33:06.727Z,10.37
2023-03-27T12:35:43.702Z,11.61
2023-03-27T12:38:32.144Z,11.48
2023-03-27T12:41:20.707Z,11.24
2023-03-27T12:43:53.416Z,11.24
2023-03-27T12:46:20.557Z,11.51
2023-03-27T12:49:06.389Z,11.85
2023-03-27T12:52:06.821Z,12.32
2023-03-27T12:54:38.496Z,11.52
2023-03-27T12:57:18.458Z,10.85
2023-03-27T12:59:48.404Z,10.57
2023-03-27T13:02:16.104Z,10.41
2023-03-27T13:05:26.896Z,10.05
2023-03-27T13:08:42.491Z,9.70
2023-03-27T13:11:34.660Z,9.41
2023-03-27T13:15:03.864Z,9.17
2023-03-27T13:17:56.174Z,8.82
2023-03-27T13:20:40.563Z,8.55
2023-03-27T13:23:25.338Z,8.23
2023-03-27T13:26:17.860Z,8.04
2023-03-27T13:28:54.233Z,8.06
2023-03-27T13:31:46.164Z,7.96
2023-03-27T13:34:32.764Z,7.86
2023-03-27T13:37:36.765Z,7.95
2023-03-27T13:40:30.921Z,7.94
2023-03-27T13:43:21.429Z,8.03
2023-03-27T13:45:52.442Z,7.80
2023-03-27T13:48:59.031Z,7.78
2023-03-27T13:51:42.751Z,8.10
2023-03-27T13:54:53.913Z,8.00
2023-03-27T13:58:11.964Z,7.95
2023-03-27T14:01:38.525Z,7.60
2023-03-27T14:04:48.727Z,8.10
2023-03-27T14:08:02.584Z,8.81
2023-03-27T14:10:57.395Z,9.44
2023-03-27T14:14:06.939Z,10.74
2023-03-27T14:17:05.356Z,11.49
2023-03-27T14:19:44.273Z,11.66
2023-03-27T14:23:13.089Z,12.13
2023-03-27T14:25:54.713Z,12.49
2023-03-27T14:28:31.602Z,12.57
2023-03-27T14:31:06.102Z,12.38
2023-03-27T14:33:34.482Z,12.38
2023-03-27T14:36:05.349Z,12.27
2023-03-27T14:38:36.145Z,12.04
2023-03-27T14:41:06.861Z,12.41
2023-03-27T14:43:33.988Z,11.96
2023-03-27T14:46:23.429Z,11.03
2023-03-27T14:48:56.816Z,10.17
2023-03-27T14:51:34.859Z,9.69
2023-03-27T14:54:12.028Z,9.31
2023-03-27T14:56:47.378Z,9.01
2023-03-27T14:59:30.168Z,8.91
2023-03-27T15:02:01.821Z,8.80
2023-03-27T15:04:31.389Z,8.48
2023-03-27T15:07:28.689Z,8.18
2023-03-27T15:10:07.909Z,7.98
2023-03-27T15:12:35.435Z,7.70
2023-03-27T15:15:04.854Z,7.42
2023-03-27T15:17:38.568Z,7.07
2023-03-27T15:20:10.456Z,6.83
2023-03-27T15:22:44.948Z,6.80
2023-03-27T15:25:24.760Z,7.02
2023-03-27T15:27:56.055Z,7.35
2023-03-27T15:30:28.598Z,7.35
2023-03-27T15:33:01.718Z,7.27
2023-03-27T15:35:45.705Z,7.31
2023-03-27T15:38:17.118Z,7.07
2023-03-27T15:40:58.594Z,7.06
2023-03-27T15:43:29.709Z,7.27
2023-03-27T15:46:15.894Z,7.25
2023-03-27T15:48:51.255Z,7.28
2023-03-27T15:51:21.072Z,7.04
2023-03-27T15:53:56.236Z,6.97
2023-03-27T15:56:34.381Z,6.73
2023-03-27T15:59:12.808Z,6.55
2023-03-27T16:01:52.189Z,6.51
2023-03-27T16:07:05.996Z,6.51
2023-03-27T16:09:56.520Z,6.65
2023-03-27T16:12:32.072Z,6.80
2023-03-27T16:15:00.662Z,6.88
2023-03-27T16:17:56.670Z,7.02
2023-03-27T16:20:23.446Z,7.21
2023-03-27T16:22:53.868Z,7.33
2023-03-27T16:25:20.756Z,7.28
2023-03-27T16:27:55.947Z,7.13
2023-03-27T16:30:35.910Z,7.11
2023-03-27T16:33:03.711Z,7.05
2023-03-27T16:35:32.403Z,7.05
2023-03-27T16:37:59.862Z,7.03
2023-03-27T16:40:27.390Z,6.81
2023-03-27T16:42:54.315Z,6.76
2023-03-27T16:45:21.383Z,6.81
2023-03-27T16:47:50.723Z,6.79
2023-03-27T16:50:24.434Z,6.78
2023-03-27T16:52:51.491Z,6.78
2023-03-27T16:55:18.704Z,6.79
2023-03-27T16:57:50.402Z,6.77
2023-03-27T17:00:19.919Z,6.79
2023-03-27T17:02:47.539Z,6.82
2023-03-27T17:05:14.885Z,6.85
2023-03-27T17:07:42.186Z,6.88
2023-03-27T17:10:12.125Z,6.94
2023-03-27T17:12:38.968Z,6.77
2023-03-27T17:15:07.137Z,6.66
2023-03-27T17:17:34.295Z,6.65
2023-03-27T17:20:01.339Z,6.63
2023-03-27T17:22:29.917Z,6.57
2023-03-27T17:25:01.001Z,6.65
2023-03-27T17:27:28.194Z,6.72
2023-03-27T17:29:58.248Z,6.71
2023-03-27T17:32:26.661Z,6.63
2023-03-27T17:34:54.138Z,6.60
2023-03-27T17:37:22.267Z,6.70
2023-03-27T17:39:50.342Z,6.57
2023-03-27T17:42:17.436Z,6.57
2023-03-27T17:44:45.436Z,6.35
2023-03-27T17:47:13.796Z,6.36
2023-03-27T17:49:47.490Z,6.36
2023-03-27T17:52:14.401Z,6.40
2023-03-27T17:54:41.516Z,6.31
2023-03-27T17:57:08.414Z,6.15
2023-03-27T17:59:36.335Z,6.13
2023-03-27T18:02:03.207Z,6.12
2023-03-27T18:04:30.998Z,6.13
2023-03-27T18:06:57.849Z,6.14
2023-03-27T18:09:25.723Z,6.06
2023-03-27T18:11:52.580Z,5.99
2023-03-27T18:14:19.403Z,5.92
2023-03-27T18:16:46.212Z,5.83
2023-03-27T18:19:16.104Z,5.76
2023-03-27T18:21:43.423Z,5.78
2023-03-27T18:24:10.571Z,5.70
2023-03-27T18:26:37.432Z,5.65
2023-03-27T18:29:04.951Z,5.57
2023-03-27T18:31:31.957Z,5.60
2023-03-27T18:33:58.774Z,5.59
2023-03-27T18:36:25.604Z,5.76
2023-03-27T18:38:52.431Z,5.80
2023-03-27T18:41:19.338Z,5.69
2023-03-27T18:43:46.664Z,5.57
2023-03-27T18:46:16.629Z,5.54
2023-03-27T18:48:45.979Z,5.59
2023-03-27T18:51:13.261Z,5.47
2023-03-27T18:53:40.561Z,5.48
2023-03-27T18:56:08.159Z,5.48
2023-03-27T18:58:35.993Z,5.56
2023-03-27T19:01:12.375Z,5.58
2023-03-27T19:03:40.345Z,5.48
2023-03-27T19:06:10.182Z,5.44
2023-03-27T19:08:38.262Z,5.39
2023-03-27T19:11:06.866Z,5.38
2023-03-27T19:13:33.859Z,5.37
2023-03-27T19:16:01.231Z,5.45
2023-03-27T19:18:42.496Z,5.46
2023-03-27T19:21:09.489Z,5.45
2023-03-27T19:23:36.286Z,5.45
2023-03-27T19:26:13.360Z,5.48
2023-03-27T19:28:40.296Z,5.43
2023-03-27T19:31:08.650Z,5.59
2023-03-27T19:33:36.097Z,5.60
2023-03-27T19:36:03.626Z,5.58
2023-03-27T19:38:30.702Z,5.66
2023-03-27T19:40:57.726Z,5.62
2023-03-27T19:43:25.116Z,5.64
2023-03-27T19:46:04.425Z,5.66
2023-03-27T19:48:41.248Z,5.64
2023-03-27T19:51:08.021Z,5.66
2023-03-27T19:53:37.242Z,5.68
2023-03-27T19:56:04.335Z,5.66
2023-03-27T19:58:31.386Z,5.58
2023-03-27T20:00:59.616Z,5.46
2023-03-27T20:03:27.305Z,5.37
2023-03-27T20:06:06.893Z,5.29
2023-03-27T20:08:38.144Z,5.12
2023-03-27T20:11:06.812Z,5.07
2023-03-27T20:13:42.310Z,5.14
2023-03-27T20:16:16.403Z,5.13
2023-03-27T20:18:43.838Z,5.07
2023-03-27T20:21:13.531Z,5.03
2023-03-27T20:23:41.870Z,5.08
2023-03-27T20:26:09.312Z,5.17
2023-03-27T20:28:36.844Z,5.20
2023-03-27T20:31:07.164Z,5.17
2023-03-27T20:33:33.971Z,5.15
2023-03-27T20:36:01.094Z,5.11
2023-03-27T20:38:31.287Z,5.10
2023-03-27T20:41:03.476Z,4.97
2023-03-27T20:43:36.047Z,4.83
2023-03-27T20:46:04.455Z,4.85
2023-03-27T20:48:53.974Z,4.86
2023-03-27T20:51:23.945Z,4.91
2023-03-27T20:53:58.682Z,4.87
2023-03-27T20:56:25.767Z,4.76
2023-03-27T20:58:52.582Z,4.68
2023-03-27T21:01:19.675Z,4.67
2023-03-27T21:03:49.522Z,4.59
2023-03-27T21:06:20.472Z,4.50
2023-03-27T21:08:47.771Z,4.49
2023-03-27T21:11:15.128Z,4.59
2023-03-27T21:13:41.897Z,4.60
2023-03-27T21:16:09.539Z,4.55
2023-03-27T21:18:36.292Z,4.47
2023-03-27T21:21:03.362Z,4.32
2023-03-27T21:23:30.607Z,4.22
2023-03-27T21:25:58.122Z,4.35
2023-03-27T21:28:25.666Z,4.41
2023-03-27T21:30:52.542Z,4.37
2023-03-27T21:33:19.416Z,4.49
2023-03-27T21:35:48.277Z,4.48
2023-03-27T21:38:17.456Z,4.51
2023-03-27T21:40:47.103Z,4.35
2023-03-27T21:43:14.154Z,4.29
2023-03-27T21:45:41.275Z,4.22
2023-03-27T21:48:15.359Z,4.21
2023-03-27T21:50:46.044Z,4.18
2023-03-27T21:53:13.497Z,4.07
2023-03-27T21:55:40.721Z,4.08
2023-03-27T21:58:11.204Z,4.15
2023-03-27T22:00:38.243Z,4.19
2023-03-27T22:03:08.288Z,4.10
2023-03-27T22:05:39.301Z,4.11
2023-03-27T22:08:07.806Z,4.06
2023-03-27T22:10:39.688Z,3.99
2023-03-27T22:13:12.828Z,3.92
2023-03-27T22:15:40.451Z,4.03
2023-03-27T22:18:10.226Z,4.05
2023-03-27T22:20:45.706Z,3.95
2023-03-27T22:23:23.874Z,3.95
2023-03-27T22:25:59.589Z,4.03
2023-03-27T22:28:28.916Z,4.04
2023-03-27T22:31:05.818Z,4.07
2023-03-27T22:33:33.374Z,4.00
2023-03-27T22:36:04.452Z,3.91
2023-03-27T22:38:38.737Z,3.84
2023-03-27T22:41:08.462Z,3.90
2023-03-27T22:43:39.012Z,3.74
2023-03-27T22:46:10.112Z,3.75
2023-03-27T22:48:37.687Z,3.73
2023-03-27T22:51:05.699Z,3.76
2023-03-27T22:53:32.994Z,3.89
2023-03-27T22:56:01.384Z,3.88
2023-03-27T22:58:29.817Z,3.74
2023-03-27T23:00:57.168Z,3.80
2023-03-27T23:03:27.300Z,3.69
2023-03-27T23:05:54.633Z,3.58
2023-03-27T23:08:27.049Z,3.65
2023-03-27T23:10:56.970Z,3.56
2023-03-27T23:13:26.346Z,3.56
2023-03-27T23:15:54.194Z,3.59
2023-03-27T23:18:24.469Z,3.59
2023-03-27T23:20:56.916Z,3.60
2023-03-27T23:23:25.165Z,3.62
2023-03-27T23:25:52.779Z,3.52
2023-03-27T23:28:20.351Z,3.54
2023-03-27T23:30:59.707Z,3.51
2023-03-27T23:33:28.205Z,3.54
2023-03-27T23:36:04.700Z,3.55
2023-03-27T23:38:32.858Z,3.50
2023-03-27T23:41:01.668Z,3.49
2023-03-27T23:43:30.373Z,3.52
2023-03-27T23:46:01.082Z,3.58
2023-03-27T23:48:29.541Z,3.56
2023-03-27T23:50:57.358Z,3.53
2023-03-27T23:53:27.395Z,3.43
2023-03-27T23:55:56.278Z,3.45
2023-03-27T23:58:25.231Z,3.38
